createdAt,value
2023-05-03T00:00:21.251Z,2.61
2023-05-03T00:01:25.324Z,3.09
2023-05-03T00:02:37.011Z,3.76
2023-05-03T00:03:39.980Z,2.55
2023-05-03T00:04:43.008Z,3.32
2023-05-03T00:05:46.086Z,2.25
2023-05-03T00:06:49.750Z,1.71
2023-05-03T00:07:54.144Z,2.99
2023-05-03T00:08:56.811Z,3.27
2023-05-03T00:10:03.198Z,2.48
2023-05-03T00:11:06.353Z,2.76
2023-05-03T00:12:09.343Z,1.77
2023-05-03T00:13:12.520Z,1.45
2023-05-03T00:14:15.490Z,1.62
2023-05-03T00:15:19.076Z,2.09
2023-05-03T00:16:21.976Z,2.70
2023-05-03T00:17:25.054Z,1.84
2023-05-03T00:18:28.209Z,2.42
2023-05-03T00:19:31.988Z,4.37
2023-05-03T00:20:34.784Z,2.39
2023-05-03T00:21:37.455Z,2.32
2023-05-03T00:22:40.437Z,2.84
2023-05-03T00:23:43.407Z,3.48
2023-05-03T00:24:46.181Z,1.63
2023-05-03T00:25:48.949Z,2.00
2023-05-03T00:26:51.725Z,2.29
2023-05-03T00:27:54.596Z,4.65
2023-05-03T00:28:57.678Z,2.45
2023-05-03T00:30:00.818Z,4.06
2023-05-03T00:31:03.976Z,2.57
2023-05-03T00:32:06.721Z,2.04
2023-05-03T00:33:09.504Z,1.94
2023-05-03T00:34:12.260Z,1.78
2023-05-03T00:35:14.941Z,2.75
2023-05-03T00:36:17.801Z,3.98
2023-05-03T00:37:20.477Z,2.97
2023-05-03T00:38:23.249Z,1.59
2023-05-03T00:39:26.128Z,1.85
2023-05-03T00:40:28.896Z,2.22
2023-05-03T00:41:31.668Z,1.60
2023-05-03T00:42:34.749Z,2.26
2023-05-03T00:43:37.518Z,2.28
2023-05-03T00:44:40.601Z,1.78
2023-05-03T00:45:43.580Z,2.35
2023-05-03T00:46:46.759Z,2.44
2023-05-03T00:47:49.642Z,2.52
2023-05-03T00:48:52.505Z,2.17
2023-05-03T00:49:55.587Z,1.62
2023-05-03T00:50:58.148Z,2.83
2023-05-03T00:52:00.830Z,3.10
2023-05-03T00:53:03.494Z,2.86
2023-05-03T00:54:06.162Z,2.02
2023-05-03T00:55:08.997Z,2.66
2023-05-03T00:56:11.721Z,4.58
2023-05-03T00:57:14.276Z,5.02
2023-05-03T00:58:16.941Z,2.33
2023-05-03T00:59:19.613Z,3.48
2023-05-03T01:00:22.504Z,2.80
2023-05-03T01:01:25.216Z,3.62
2023-05-03T01:02:27.993Z,4.51
2023-05-03T01:03:31.022Z,3.22
2023-05-03T01:04:33.990Z,3.92
2023-05-03T01:05:36.759Z,2.96
2023-05-03T01:06:39.590Z,3.00
2023-05-03T01:07:42.309Z,7.12
2023-05-03T01:08:44.969Z,4.36
2023-05-03T01:09:47.756Z,2.39
2023-05-03T01:10:50.418Z,5.76
2023-05-03T01:11:52.982Z,3.75
2023-05-03T01:12:55.655Z,2.49
2023-05-03T01:13:58.425Z,3.03
2023-05-03T01:15:01.188Z,3.57
2023-05-03T01:16:03.924Z,4.93
2023-05-03T01:17:06.634Z,4.42
2023-05-03T01:18:09.650Z,7.92
2023-05-03T01:19:12.590Z,10.65
2023-05-03T01:20:15.462Z,6.10
2023-05-03T01:21:18.594Z,10.21
2023-05-03T01:22:21.526Z,15.21
2023-05-03T01:23:24.644Z,7.52
2023-05-03T01:24:27.680Z,6.03
2023-05-03T01:25:30.555Z,9.26
2023-05-03T01:26:33.850Z,9.50
2023-05-03T01:27:36.931Z,10.95
2023-05-03T01:28:39.994Z,8.68
2023-05-03T01:29:42.977Z,10.52
2023-05-03T01:30:45.955Z,14.88
2023-05-03T01:31:49.074Z,8.12
2023-05-03T01:32:52.221Z,8.35
2023-05-03T01:33:55.188Z,7.97
2023-05-03T01:34:59.192Z,10.03
2023-05-03T01:36:02.065Z,11.44
2023-05-03T01:37:05.262Z,10.55
2023-05-03T01:38:08.025Z,13.10
2023-05-03T01:39:10.688Z,5.67
2023-05-03T01:40:13.365Z,10.18
2023-05-03T01:41:18.492Z,12.23
2023-05-03T01:42:21.367Z,5.12
2023-05-03T01:43:24.550Z,9.08
2023-05-03T01:44:27.110Z,19.21
2023-05-03T01:45:29.958Z,7.20
2023-05-03T01:46:32.584Z,9.55
2023-05-03T01:47:36.028Z,12.88
2023-05-03T01:48:39.118Z,29.79
2023-05-03T01:49:42.217Z,23.62
2023-05-03T01:50:45.085Z,6.10
2023-05-03T01:51:48.053Z,8.86
2023-05-03T01:52:51.134Z,11.80
2023-05-03T01:53:54.207Z,8.32
2023-05-03T01:54:57.098Z,15.39
2023-05-03T01:56:00.066Z,17.37
2023-05-03T01:57:02.983Z,14.60
2023-05-03T01:58:06.264Z,17.18
2023-05-03T01:59:09.317Z,18.89
2023-05-03T02:00:12.174Z,22.21
2023-05-03T02:01:15.183Z,6.85
2023-05-03T02:02:18.157Z,15.70
2023-05-03T02:03:21.426Z,16.92
2023-05-03T02:04:24.286Z,12.03
2023-05-03T02:05:27.164Z,13.83
2023-05-03T02:06:30.072Z,11.37
2023-05-03T02:07:33.016Z,19.26
2023-05-03T02:08:36.004Z,13.45
2023-05-03T02:09:39.275Z,24.94
2023-05-03T02:10:42.257Z,18.68
2023-05-03T02:11:45.129Z,6.85
2023-05-03T02:12:48.007Z,12.48
2023-05-03T02:13:51.306Z,7.55
2023-05-03T02:14:54.386Z,7.02
2023-05-03T02:15:57.139Z,8.62
2023-05-03T02:17:00.075Z,11.24
2023-05-03T02:18:02.963Z,12.73
2023-05-03T02:19:06.713Z,15.10
2023-05-03T02:20:09.993Z,5.99
2023-05-03T02:21:12.747Z,5.27
2023-05-03T02:22:15.831Z,6.72
2023-05-03T02:23:18.809Z,7.55
2023-05-03T02:24:21.672Z,13.95
2023-05-03T02:25:26.930Z,5.66
2023-05-03T02:26:28.963Z,7.13
2023-05-03T02:27:32.036Z,8.00
2023-05-03T02:28:35.014Z,5.51
2023-05-03T02:29:38.112Z,6.09
2023-05-03T02:30:41.007Z,7.78
2023-05-03T02:31:43.761Z,5.10
2023-05-03T02:32:46.864Z,7.68
2023-05-03T02:33:49.695Z,8.54
2023-05-03T02:34:52.780Z,4.58
2023-05-03T02:35:55.643Z,4.38
2023-05-03T02:36:58.321Z,8.12
2023-05-03T02:38:01.299Z,8.32
2023-05-03T02:39:04.067Z,5.28
2023-05-03T02:40:06.939Z,9.15
2023-05-03T02:41:09.715Z,10.82
2023-05-03T02:42:12.287Z,5.98
2023-05-03T02:43:15.060Z,9.96
2023-05-03T02:44:17.731Z,27.03
2023-05-03T02:45:20.601Z,10.60
2023-05-03T02:46:23.511Z,8.92
2023-05-03T02:47:26.292Z,9.43
2023-05-03T02:48:29.020Z,8.92
2023-05-03T02:49:31.990Z,5.55
2023-05-03T02:50:35.483Z,5.86
2023-05-03T02:51:38.364Z,5.35
2023-05-03T02:52:41.446Z,6.42
2023-05-03T02:53:44.412Z,7.84
2023-05-03T02:54:47.183Z,6.15
2023-05-03T02:55:50.589Z,3.63
2023-05-03T02:56:53.462Z,5.14
2023-05-03T02:57:56.329Z,7.08
2023-05-03T02:58:59.305Z,6.92
2023-05-03T03:00:02.404Z,7.34
2023-05-03T03:01:05.764Z,5.75
2023-05-03T03:02:08.911Z,4.99
2023-05-03T03:03:12.036Z,4.70
2023-05-03T03:04:15.423Z,4.02
2023-05-03T03:05:18.489Z,6.06
2023-05-03T03:06:21.900Z,5.92
2023-05-03T03:07:24.853Z,8.92
2023-05-03T03:08:27.830Z,4.61
2023-05-03T03:09:30.929Z,5.02
2023-05-03T03:10:33.791Z,6.70
2023-05-03T03:11:37.106Z,13.26
2023-05-03T03:12:39.949Z,8.15
2023-05-03T03:13:43.142Z,9.44
2023-05-03T03:14:46.008Z,11.19
2023-05-03T03:15:49.205Z,6.02
2023-05-03T03:16:52.382Z,5.84
2023-05-03T03:17:55.409Z,8.84
2023-05-03T03:18:58.233Z,6.65
2023-05-03T03:20:01.531Z,7.54
2023-05-03T03:21:04.600Z,12.08
2023-05-03T03:22:07.249Z,13.48
2023-05-03T03:23:10.223Z,8.63
2023-05-03T03:24:13.631Z,7.68
2023-05-03T03:25:16.505Z,4.84
2023-05-03T03:26:19.467Z,6.84
2023-05-03T03:27:22.453Z,9.53
2023-05-03T03:28:25.625Z,11.22
2023-05-03T03:29:28.395Z,6.10
2023-05-03T03:30:32.299Z,9.54
2023-05-03T03:31:35.310Z,6.24
2023-05-03T03:32:38.631Z,9.49
2023-05-03T03:33:41.442Z,7.10
2023-05-03T03:34:44.033Z,8.53
2023-05-03T03:35:46.790Z,7.68
2023-05-03T03:36:49.439Z,6.48
2023-05-03T03:37:52.317Z,5.28
2023-05-03T03:38:55.099Z,6.89
2023-05-03T03:39:57.970Z,5.44
2023-05-03T03:41:00.636Z,6.49
2023-05-03T03:42:03.420Z,3.99
2023-05-03T03:43:06.381Z,3.38
2023-05-03T03:44:09.258Z,6.10
2023-05-03T03:45:12.138Z,11.20
2023-05-03T03:46:14.931Z,7.15
2023-05-03T03:47:17.752Z,4.73
2023-05-03T03:48:21.127Z,6.34
2023-05-03T03:49:23.943Z,7.61
2023-05-03T03:50:26.734Z,4.82
2023-05-03T03:51:29.407Z,5.03
2023-05-03T03:52:31.946Z,5.04
2023-05-03T03:53:34.839Z,7.62
2023-05-03T03:54:37.396Z,7.71
2023-05-03T03:55:39.954Z,9.87
2023-05-03T03:56:42.848Z,8.54
2023-05-03T03:57:45.607Z,8.22
2023-05-03T03:58:48.388Z,5.62
2023-05-03T03:59:51.053Z,2.78
2023-05-03T04:00:53.941Z,7.16
2023-05-03T04:01:56.820Z,13.52
2023-05-03T04:02:59.836Z,5.71
2023-05-03T04:04:03.202Z,6.38
2023-05-03T04:05:06.248Z,4.45
2023-05-03T04:06:09.156Z,8.33
2023-05-03T04:07:12.213Z,7.97
2023-05-03T04:08:15.169Z,5.97
2023-05-03T04:09:18.181Z,10.92
2023-05-03T04:10:21.133Z,14.32
2023-05-03T04:11:24.114Z,8.89
2023-05-03T04:12:26.879Z,5.52
2023-05-03T04:13:30.081Z,3.25
2023-05-03T04:14:33.246Z,6.75
2023-05-03T04:15:36.220Z,8.64
2023-05-03T04:16:39.260Z,7.86
2023-05-03T04:17:42.103Z,6.26
2023-05-03T04:18:45.050Z,13.57
2023-05-03T04:19:48.541Z,5.28
2023-05-03T04:20:51.405Z,4.82
2023-05-03T04:21:54.500Z,14.74
2023-05-03T04:22:57.057Z,9.77
2023-05-03T04:24:02.907Z,7.20
2023-05-03T04:25:05.876Z,8.25
2023-05-03T04:26:14.521Z,5.77
2023-05-03T04:27:14.298Z,4.33
2023-05-03T04:28:17.277Z,4.20
2023-05-03T04:29:20.163Z,11.52
2023-05-03T04:30:22.810Z,31.30
2023-05-03T04:31:25.867Z,15.22
2023-05-03T04:32:28.686Z,24.15
2023-05-03T04:33:31.350Z,3.85
2023-05-03T04:34:34.002Z,8.07
2023-05-03T04:35:36.777Z,20.05
2023-05-03T04:36:39.437Z,12.51
2023-05-03T04:37:45.722Z,9.96
2023-05-03T04:38:48.479Z,12.13
2023-05-03T04:39:51.242Z,5.86
2023-05-03T04:40:54.226Z,9.12
2023-05-03T04:41:57.094Z,13.35
2023-05-03T04:43:00.201Z,8.28
2023-05-03T04:44:03.062Z,6.23
2023-05-03T04:45:06.055Z,4.78
2023-05-03T04:46:09.119Z,5.78
2023-05-03T04:47:12.295Z,7.47
2023-05-03T04:48:15.213Z,8.79
2023-05-03T04:49:17.969Z,11.65
2023-05-03T04:50:21.049Z,4.49
2023-05-03T04:51:24.010Z,3.45
2023-05-03T04:52:26.683Z,4.65
2023-05-03T04:53:29.537Z,5.12
2023-05-03T04:54:32.409Z,4.32
2023-05-03T04:55:35.298Z,3.28
2023-05-03T04:56:38.559Z,2.88
2023-05-03T04:57:41.348Z,3.34
2023-05-03T04:58:44.341Z,3.22
2023-05-03T04:59:47.289Z,4.71
2023-05-03T05:00:50.197Z,11.04
2023-05-03T05:01:53.469Z,7.75
2023-05-03T05:02:56.822Z,4.32
2023-05-03T05:04:00.035Z,4.18
2023-05-03T05:05:02.892Z,4.63
2023-05-03T05:06:06.108Z,5.10
2023-05-03T05:07:09.295Z,8.46
2023-05-03T05:08:12.341Z,7.53
2023-05-03T05:09:15.312Z,9.02
2023-05-03T05:10:18.310Z,6.89
2023-05-03T05:11:21.273Z,5.12
2023-05-03T05:12:24.457Z,8.08
2023-05-03T05:13:27.743Z,7.55
2023-05-03T05:14:30.623Z,11.91
2023-05-03T05:15:33.483Z,5.33
2023-05-03T05:16:36.490Z,7.01
2023-05-03T05:17:39.994Z,6.14
2023-05-03T05:18:43.252Z,10.78
2023-05-03T05:19:46.201Z,8.87
2023-05-03T05:20:49.412Z,17.45
2023-05-03T05:21:52.470Z,11.63
2023-05-03T05:22:55.558Z,4.09
2023-05-03T05:23:58.522Z,6.55
2023-05-03T05:25:01.404Z,5.07
2023-05-03T05:26:04.078Z,4.92
2023-05-03T05:27:06.746Z,5.08
2023-05-03T05:28:09.510Z,8.54
2023-05-03T05:29:12.393Z,10.29
2023-05-03T05:30:15.066Z,9.36
2023-05-03T05:31:17.970Z,8.02
2023-05-03T05:32:20.703Z,14.05
2023-05-03T05:33:23.692Z,9.43
2023-05-03T05:34:26.453Z,11.20
2023-05-03T05:35:29.246Z,10.47
2023-05-03T05:36:31.910Z,4.87
2023-05-03T05:37:34.571Z,5.22
2023-05-03T05:38:37.454Z,3.68
2023-05-03T05:39:40.312Z,5.23
2023-05-03T05:40:43.107Z,7.93
2023-05-03T05:41:45.968Z,4.82
2023-05-03T05:42:48.640Z,7.59
2023-05-03T05:43:51.909Z,5.36
2023-05-03T05:44:54.587Z,5.35
2023-05-03T05:45:57.605Z,6.81
2023-05-03T05:47:00.478Z,4.99
2023-05-03T05:48:03.996Z,11.08
2023-05-03T05:49:07.016Z,5.75
2023-05-03T05:50:17.733Z,10.06
2023-05-03T05:51:14.657Z,8.83
2023-05-03T05:52:17.471Z,5.47
2023-05-03T05:53:20.248Z,5.08
2023-05-03T05:54:23.127Z,5.83
2023-05-03T05:55:26.096Z,10.90
2023-05-03T05:56:28.979Z,3.05
2023-05-03T05:57:31.746Z,3.58
2023-05-03T05:58:34.619Z,9.09
2023-05-03T05:59:37.908Z,6.92
2023-05-03T06:00:40.879Z,5.52
2023-05-03T06:01:43.484Z,8.65
2023-05-03T06:02:46.566Z,8.28
2023-05-03T06:03:49.824Z,5.68
2023-05-03T06:04:52.744Z,13.63
2023-05-03T06:05:55.464Z,8.70
2023-05-03T06:07:01.615Z,7.00
2023-05-03T06:08:04.495Z,4.43
2023-05-03T06:09:22.987Z,5.53
2023-05-03T06:10:11.992Z,16.31
2023-05-03T06:11:14.751Z,13.54
2023-05-03T06:12:17.627Z,9.25
2023-05-03T06:13:20.699Z,9.90
2023-05-03T06:14:23.781Z,17.42
2023-05-03T06:15:27.281Z,19.68
2023-05-03T06:16:33.270Z,5.76
2023-05-03T06:17:36.268Z,5.83
2023-05-03T06:18:39.481Z,9.27
2023-05-03T06:19:44.414Z,5.51
2023-05-03T06:20:46.983Z,12.89
2023-05-03T06:21:49.742Z,11.09
2023-05-03T06:22:52.430Z,9.20
2023-05-03T06:23:55.093Z,10.59
2023-05-03T06:24:57.956Z,4.76
2023-05-03T06:26:00.631Z,4.03
2023-05-03T06:27:03.406Z,4.18
2023-05-03T06:28:06.170Z,3.75
2023-05-03T06:29:08.954Z,4.57
2023-05-03T06:30:11.621Z,5.98
2023-05-03T06:31:14.716Z,8.31
2023-05-03T06:32:17.832Z,5.38
2023-05-03T06:33:20.643Z,8.92
2023-05-03T06:34:23.726Z,4.63
2023-05-03T06:35:31.773Z,9.21
2023-05-03T06:36:34.603Z,6.72
2023-05-03T06:37:37.591Z,6.34
2023-05-03T06:38:40.338Z,6.44
2023-05-03T06:39:43.331Z,8.28
2023-05-03T06:40:46.293Z,15.59
2023-05-03T06:41:49.597Z,5.07
2023-05-03T06:42:52.567Z,7.52
2023-05-03T06:43:55.457Z,5.68
2023-05-03T06:44:58.213Z,10.35
2023-05-03T06:46:01.318Z,3.95
2023-05-03T06:47:04.397Z,6.42
2023-05-03T06:48:07.568Z,10.50
2023-05-03T06:49:10.622Z,7.41
2023-05-03T06:50:13.835Z,4.95
2023-05-03T06:51:20.298Z,6.67
2023-05-03T06:52:23.912Z,4.86
2023-05-03T06:53:26.742Z,6.85
2023-05-03T06:54:29.721Z,6.98
2023-05-03T06:55:32.593Z,4.23
2023-05-03T06:56:35.470Z,5.26
2023-05-03T06:57:38.333Z,9.60
2023-05-03T06:58:41.108Z,4.70
2023-05-03T06:59:44.085Z,6.07
2023-05-03T07:00:47.076Z,5.30
2023-05-03T07:01:49.976Z,7.79
2023-05-03T07:02:52.894Z,10.90
2023-05-03T07:03:57.723Z,6.14
2023-05-03T07:05:00.526Z,4.25
2023-05-03T07:06:03.425Z,5.76
2023-05-03T07:07:07.473Z,4.75
2023-05-03T07:08:10.352Z,5.33
2023-05-03T07:09:13.024Z,5.48
2023-05-03T07:10:15.894Z,3.65
2023-05-03T07:11:19.093Z,5.25
2023-05-03T07:12:21.755Z,4.58
2023-05-03T07:13:24.731Z,4.36
2023-05-03T07:14:27.629Z,5.46
2023-05-03T07:15:30.582Z,6.36
2023-05-03T07:16:33.497Z,9.87
2023-05-03T07:17:36.150Z,5.09
2023-05-03T07:18:39.405Z,7.82
2023-05-03T07:19:42.199Z,4.89
2023-05-03T07:20:45.055Z,4.73
2023-05-03T07:21:47.732Z,4.70
2023-05-03T07:22:50.292Z,5.01
2023-05-03T07:23:53.178Z,4.85
2023-05-03T07:24:56.309Z,3.99
2023-05-03T07:25:59.632Z,3.76
2023-05-03T07:27:02.523Z,6.06
2023-05-03T07:28:05.696Z,5.74
2023-05-03T07:29:08.873Z,3.88
2023-05-03T07:30:11.960Z,2.83
2023-05-03T07:31:14.925Z,2.87
2023-05-03T07:32:18.355Z,5.40
2023-05-03T07:33:21.525Z,7.62
2023-05-03T07:34:24.583Z,4.50
2023-05-03T07:35:27.449Z,6.63
2023-05-03T07:36:30.441Z,9.22
2023-05-03T07:37:33.406Z,6.45
2023-05-03T07:38:36.294Z,3.14
2023-05-03T07:39:39.252Z,4.84
2023-05-03T07:40:42.435Z,7.72
2023-05-03T07:41:45.215Z,4.95
2023-05-03T07:42:47.967Z,3.87
2023-05-03T07:43:51.057Z,4.42
2023-05-03T07:44:57.713Z,4.29
2023-05-03T07:46:00.430Z,6.12
2023-05-03T07:47:03.368Z,6.62
2023-05-03T07:48:06.167Z,4.08
2023-05-03T07:49:09.436Z,4.17
2023-05-03T07:50:12.392Z,10.83
2023-05-03T07:51:15.038Z,5.10
2023-05-03T07:52:17.743Z,4.17
2023-05-03T07:53:20.413Z,5.22
2023-05-03T07:54:23.394Z,3.21
2023-05-03T07:55:26.568Z,4.06
2023-05-03T07:56:29.245Z,6.00
2023-05-03T07:57:32.227Z,3.52
2023-05-03T07:58:40.726Z,3.86
2023-05-03T07:59:40.141Z,3.36
2023-05-03T08:00:43.401Z,4.72
2023-05-03T08:01:46.975Z,6.06
2023-05-03T08:02:50.135Z,5.69
2023-05-03T08:03:53.435Z,4.26
2023-05-03T08:04:56.565Z,3.74
2023-05-03T08:05:59.720Z,3.08
2023-05-03T08:07:02.629Z,3.56
2023-05-03T08:08:05.605Z,4.66
2023-05-03T08:09:09.473Z,4.63
2023-05-03T08:10:12.146Z,3.62
2023-05-03T08:11:14.931Z,4.26
2023-05-03T08:12:17.593Z,3.64
2023-05-03T08:13:20.357Z,3.57
2023-05-03T08:14:23.137Z,4.26
2023-05-03T08:15:25.911Z,4.23
2023-05-03T08:16:29.044Z,5.18
2023-05-03T08:17:31.708Z,5.29
2023-05-03T08:18:34.934Z,4.37
2023-05-03T08:19:37.827Z,3.50
2023-05-03T08:20:41.010Z,4.36
2023-05-03T08:21:45.204Z,4.69
2023-05-03T08:22:48.174Z,3.41
2023-05-03T08:23:50.961Z,5.58
2023-05-03T08:24:53.826Z,3.30
2023-05-03T08:25:57.012Z,4.67
2023-05-03T08:27:00.240Z,5.05
2023-05-03T08:28:03.387Z,5.32
2023-05-03T08:29:06.359Z,5.67
2023-05-03T08:30:09.434Z,5.56
2023-05-03T08:31:12.458Z,4.32
2023-05-03T08:32:15.593Z,5.41
2023-05-03T08:33:18.469Z,4.57
2023-05-03T08:34:21.357Z,4.43
2023-05-03T08:35:24.321Z,5.13
2023-05-03T08:36:27.211Z,5.85
2023-05-03T08:37:30.176Z,6.70
2023-05-03T08:38:32.826Z,5.92
2023-05-03T08:39:36.020Z,3.36
2023-05-03T08:40:38.887Z,3.52
2023-05-03T08:41:45.442Z,6.09
2023-05-03T08:42:48.340Z,3.59
2023-05-03T08:43:53.436Z,4.72
2023-05-03T08:44:56.232Z,4.50
2023-05-03T08:45:59.217Z,4.41
2023-05-03T08:47:02.170Z,5.74
2023-05-03T08:48:05.391Z,3.78
2023-05-03T08:49:08.337Z,5.39
2023-05-03T08:50:11.212Z,4.92
2023-05-03T08:51:15.313Z,4.77
2023-05-03T08:52:18.490Z,4.62
2023-05-03T08:53:21.677Z,3.69
2023-05-03T08:54:27.485Z,3.70
2023-05-03T08:55:30.187Z,6.21
2023-05-03T08:56:33.076Z,6.83
2023-05-03T08:57:35.934Z,4.45
2023-05-03T08:58:39.031Z,5.92
2023-05-03T08:59:41.886Z,8.51
2023-05-03T09:00:45.491Z,6.55
2023-05-03T09:01:49.009Z,4.75
2023-05-03T09:02:52.056Z,8.57
2023-05-03T09:03:55.510Z,6.61
2023-05-03T09:04:58.315Z,5.22
2023-05-03T09:06:01.132Z,5.10
2023-05-03T09:07:07.735Z,4.20
2023-05-03T09:08:10.624Z,6.22
2023-05-03T09:09:13.599Z,6.71
2023-05-03T09:10:16.373Z,5.47
2023-05-03T09:11:19.145Z,3.95
2023-05-03T09:12:22.024Z,5.42
2023-05-03T09:13:24.892Z,3.90
2023-05-03T09:14:27.664Z,4.15
2023-05-03T09:15:30.378Z,4.75
2023-05-03T09:16:33.032Z,3.79
2023-05-03T09:17:39.288Z,5.20
2023-05-03T09:18:41.928Z,4.04
2023-05-03T09:19:44.607Z,3.55
2023-05-03T09:20:47.273Z,2.95
2023-05-03T09:21:51.074Z,4.12
2023-05-03T09:22:53.732Z,3.89
2023-05-03T09:23:56.818Z,3.99
2023-05-03T09:24:59.808Z,5.07
2023-05-03T09:26:02.987Z,3.60
2023-05-03T09:27:05.950Z,5.04
2023-05-03T09:28:08.731Z,5.81
2023-05-03T09:29:11.705Z,5.11
2023-05-03T09:30:14.675Z,4.49
2023-05-03T09:31:17.551Z,3.68
2023-05-03T09:32:20.545Z,3.98
2023-05-03T09:33:23.503Z,5.26
2023-05-03T09:34:26.273Z,4.17
2023-05-03T09:35:29.382Z,4.86
2023-05-03T09:36:32.230Z,4.28
2023-05-03T09:37:46.271Z,5.01
2023-05-03T09:38:49.246Z,6.58
2023-05-03T09:39:52.017Z,4.82
2023-05-03T09:40:55.210Z,3.25
2023-05-03T09:41:58.384Z,4.28
2023-05-03T09:43:04.991Z,5.08
2023-05-03T09:44:07.814Z,5.45
2023-05-03T09:45:10.808Z,4.94
2023-05-03T09:46:13.804Z,6.02
2023-05-03T09:47:17.687Z,3.16
2023-05-03T09:48:20.747Z,4.19
2023-05-03T09:49:23.721Z,5.09
2023-05-03T09:50:26.599Z,3.14
2023-05-03T09:51:29.990Z,2.95
2023-05-03T09:52:32.756Z,3.31
2023-05-03T09:53:36.968Z,3.66
2023-05-03T09:54:39.868Z,5.74
2023-05-03T09:55:42.927Z,4.14
2023-05-03T09:56:46.112Z,5.27
2023-05-03T09:57:49.071Z,3.66
2023-05-03T09:58:51.961Z,3.51
2023-05-03T09:59:54.832Z,6.49
2023-05-03T10:00:58.155Z,5.15
2023-05-03T10:03:22.102Z,4.52
2023-05-03T10:04:25.176Z,4.36
2023-05-03T10:05:28.279Z,6.05
2023-05-03T10:06:31.079Z,5.15
2023-05-03T10:07:34.127Z,4.76
2023-05-03T10:08:36.971Z,4.08
2023-05-03T10:09:39.662Z,4.39
2023-05-03T10:10:48.116Z,5.38
2023-05-03T10:11:51.026Z,3.57
2023-05-03T10:12:59.510Z,4.06
2023-05-03T10:14:02.217Z,4.28
2023-05-03T10:15:05.138Z,5.43
2023-05-03T10:16:08.089Z,4.80
2023-05-03T10:17:10.928Z,4.14
2023-05-03T10:18:14.084Z,4.73
2023-05-03T10:19:16.907Z,4.04
2023-05-03T10:20:19.462Z,4.15
2023-05-03T10:21:22.334Z,4.97
2023-05-03T10:22:24.892Z,5.71
2023-05-03T10:23:28.301Z,4.27
2023-05-03T10:24:31.050Z,4.97
2023-05-03T10:25:34.447Z,5.58
2023-05-03T10:26:38.346Z,7.64
2023-05-03T10:27:41.224Z,5.59
2023-05-03T10:28:44.287Z,6.04
2023-05-03T10:29:47.265Z,5.62
2023-05-03T10:30:51.944Z,5.22
2023-05-03T10:31:54.816Z,5.96
2023-05-03T10:32:59.065Z,6.22
2023-05-03T10:34:01.940Z,6.29
2023-05-03T10:35:06.625Z,6.75
2023-05-03T10:36:09.631Z,6.63
2023-05-03T10:37:12.202Z,7.67
2023-05-03T10:38:14.789Z,6.98
2023-05-03T10:39:18.155Z,6.25
2023-05-03T10:40:21.125Z,7.72
2023-05-03T10:41:23.812Z,4.66
2023-05-03T10:42:26.369Z,5.18
2023-05-03T10:43:28.828Z,4.60
2023-05-03T10:44:31.418Z,6.75
2023-05-03T10:45:34.169Z,7.42
2023-05-03T10:46:39.439Z,7.87
2023-05-03T10:47:42.847Z,7.36
2023-05-03T10:48:45.665Z,7.99
2023-05-03T10:49:48.655Z,8.57
2023-05-03T10:50:51.530Z,10.95
2023-05-03T10:51:54.492Z,6.70
2023-05-03T10:52:57.466Z,6.72
2023-05-03T10:54:00.265Z,7.28
2023-05-03T10:55:03.649Z,9.11
2023-05-03T10:56:06.909Z,7.76
2023-05-03T10:57:09.982Z,8.30
2023-05-03T10:58:13.182Z,8.88
2023-05-03T10:59:16.245Z,8.94
2023-05-03T11:00:19.432Z,8.42
2023-05-03T11:01:22.556Z,10.92
2023-05-03T11:02:25.515Z,7.98
2023-05-03T11:03:28.669Z,9.42
2023-05-03T11:04:31.940Z,9.45
2023-05-03T11:05:34.637Z,8.61
2023-05-03T11:06:37.388Z,10.98
2023-05-03T11:07:39.972Z,10.48
2023-05-03T11:08:42.747Z,10.92
2023-05-03T11:09:51.449Z,14.28
2023-05-03T11:10:54.113Z,12.15
2023-05-03T11:11:56.686Z,9.92
2023-05-03T11:12:59.259Z,11.65
2023-05-03T11:14:01.953Z,10.82
2023-05-03T11:15:04.886Z,9.52
2023-05-03T11:16:07.713Z,10.90
2023-05-03T11:17:10.248Z,9.85
2023-05-03T11:18:12.818Z,10.37
2023-05-03T11:19:21.523Z,9.40
2023-05-03T11:20:24.293Z,11.97
2023-05-03T11:21:27.699Z,12.56
2023-05-03T11:22:30.556Z,10.66
2023-05-03T11:23:33.321Z,11.28
2023-05-03T11:24:36.196Z,14.05
2023-05-03T11:25:39.083Z,9.00
2023-05-03T11:26:42.151Z,10.45
2023-05-03T11:27:47.915Z,11.39
2023-05-03T11:28:50.876Z,11.63
2023-05-03T11:29:53.846Z,11.55
2023-05-03T11:30:56.828Z,10.64
2023-05-03T11:32:00.030Z,11.51
2023-05-03T11:33:03.017Z,10.91
2023-05-03T11:34:07.556Z,11.07
2023-05-03T11:35:10.573Z,11.81
2023-05-03T11:36:13.242Z,12.08
2023-05-03T11:37:16.324Z,12.72
2023-05-03T11:38:19.401Z,12.75
2023-05-03T11:39:24.407Z,10.12
2023-05-03T11:40:27.886Z,12.61
2023-05-03T11:41:33.262Z,12.64
2023-05-03T11:42:36.804Z,11.22
2023-05-03T11:43:39.610Z,11.01
2023-05-03T11:44:42.381Z,14.54
2023-05-03T11:45:45.182Z,14.25
2023-05-03T11:46:48.494Z,12.18
2023-05-03T11:47:51.667Z,13.48
2023-05-03T11:48:54.410Z,14.62
2023-05-03T11:49:56.957Z,13.30
2023-05-03T11:50:59.932Z,10.89
2023-05-03T11:52:02.706Z,11.86
2023-05-03T11:53:05.898Z,10.90
2023-05-03T11:54:21.030Z,14.25
2023-05-03T11:55:13.186Z,11.19
2023-05-03T11:56:16.059Z,14.38
2023-05-03T11:57:18.929Z,13.63
2023-05-03T11:58:22.320Z,10.71
2023-05-03T11:59:25.193Z,12.11
2023-05-03T12:00:29.782Z,14.77
2023-05-03T12:01:32.896Z,15.15
2023-05-03T12:02:35.934Z,14.77
2023-05-03T12:03:39.119Z,12.39
2023-05-03T12:04:44.278Z,13.06
2023-05-03T12:05:49.462Z,14.36
2023-05-03T12:06:54.210Z,15.76
2023-05-03T12:07:58.220Z,13.97
2023-05-03T12:09:01.834Z,15.31
2023-05-03T12:10:15.739Z,17.22
2023-05-03T12:11:10.026Z,17.39
2023-05-03T12:12:14.764Z,19.02
2023-05-03T12:13:19.120Z,15.68
2023-05-03T12:14:22.302Z,16.18
2023-05-03T12:15:26.442Z,22.68
2023-05-03T12:16:29.479Z,14.66
2023-05-03T12:17:32.359Z,15.94
2023-05-03T12:18:35.668Z,16.24
2023-05-03T12:19:39.654Z,15.63
2023-05-03T12:21:29.540Z,14.74
2023-05-03T12:22:57.271Z,18.26
2023-05-03T12:23:57.763Z,20.96
2023-05-03T12:25:03.652Z,23.25
2023-05-03T12:26:05.512Z,35.13
2023-05-03T12:27:08.890Z,14.51
2023-05-03T12:29:15.718Z,13.19
2023-05-03T12:30:19.109Z,13.31
2023-05-03T12:31:22.901Z,16.45
2023-05-03T12:32:26.142Z,14.88
2023-05-03T12:33:29.190Z,14.62
2023-05-03T12:34:35.741Z,24.34
2023-05-03T12:35:39.229Z,26.37
2023-05-03T12:36:43.444Z,26.38
2023-05-03T12:37:48.970Z,34.51
2023-05-03T12:38:50.651Z,23.54
2023-05-03T12:40:58.165Z,22.53
2023-05-03T12:43:05.187Z,20.73
2023-05-03T12:44:10.636Z,24.70
2023-05-03T12:45:12.528Z,27.94
2023-05-03T12:46:33.260Z,29.12
2023-05-03T12:47:28.002Z,40.65
2023-05-03T12:48:24.358Z,27.65
2023-05-03T12:49:27.352Z,18.95
2023-05-03T12:50:31.940Z,29.27
2023-05-03T12:51:35.133Z,34.74
2023-05-03T12:52:38.922Z,20.26
2023-05-03T12:53:45.381Z,17.20
2023-05-03T12:54:48.923Z,20.38
2023-05-03T12:55:51.683Z,26.11
2023-05-03T12:56:55.479Z,18.92
2023-05-03T12:58:26.682Z,13.72
2023-05-03T12:59:36.208Z,15.29
2023-05-03T13:00:13.571Z,12.58
2023-05-03T13:03:20.424Z,16.99
2023-05-03T13:04:55.813Z,18.75
2023-05-03T13:05:35.268Z,21.65
2023-05-03T13:06:35.383Z,29.83
2023-05-03T13:07:42.405Z,49.53
2023-05-03T13:08:48.922Z,30.92
2023-05-03T13:10:49.605Z,38.14
2023-05-03T13:11:52.830Z,25.32
2023-05-03T13:12:55.652Z,45.91
2023-05-03T13:13:58.423Z,24.32
2023-05-03T13:15:01.392Z,18.45
2023-05-03T13:16:04.078Z,16.95
2023-05-03T13:17:06.753Z,20.54
2023-05-03T13:18:17.803Z,26.15
2023-05-03T13:19:20.682Z,18.26
2023-05-03T13:20:23.450Z,20.40
2023-05-03T13:21:26.318Z,24.88
2023-05-03T13:22:29.311Z,30.85
2023-05-03T13:23:32.273Z,20.16
2023-05-03T13:24:35.557Z,20.10
2023-05-03T13:25:38.432Z,18.18
2023-05-03T13:26:41.325Z,29.22
2023-05-03T13:27:43.997Z,34.47
2023-05-03T13:28:47.157Z,53.67
2023-05-03T13:29:50.033Z,19.61
2023-05-03T13:30:53.017Z,28.39
2023-05-03T13:31:55.931Z,18.78
2023-05-03T13:32:59.014Z,15.83
2023-05-03T13:34:01.960Z,19.48
2023-05-03T13:35:05.036Z,28.66
2023-05-03T13:36:08.101Z,14.65
2023-05-03T13:37:13.028Z,16.77
2023-05-03T13:38:15.811Z,16.57
2023-05-03T13:39:19.198Z,17.91
2023-05-03T13:40:21.949Z,13.58
2023-05-03T13:41:24.832Z,13.00
2023-05-03T13:42:27.713Z,12.46
2023-05-03T13:43:30.574Z,15.38
2023-05-03T13:44:33.459Z,13.28
2023-05-03T13:45:36.234Z,22.90
2023-05-03T13:46:39.142Z,29.15
2023-05-03T13:48:04.988Z,16.14
2023-05-03T13:48:46.423Z,16.87
2023-05-03T13:49:49.467Z,25.17
2023-05-03T13:50:52.339Z,24.45
2023-05-03T13:51:55.211Z,21.42
2023-05-03T13:52:58.086Z,36.36
2023-05-03T13:54:00.981Z,28.79
2023-05-03T13:55:04.048Z,20.56
2023-05-03T13:56:06.914Z,21.44
2023-05-03T13:57:09.793Z,31.14
2023-05-03T13:58:12.254Z,32.53
2023-05-03T13:59:15.176Z,33.35
2023-05-03T14:00:18.036Z,26.73
2023-05-03T14:01:20.654Z,27.30